sensor_id;sensor_type;location;lat;lon;timestamp;P1;durP1;ratioP1;P2;durP2;ratioP2
8978;SDS011;4524;51.364;5.448;2023-03-01T00:01:16;9.57;;;8.68;;
8978;SDS011;4524;51.364;5.448;2023-03-01T00:03:46;10.20;;;8.70;;
8978;SDS011;4524;51.364;5.448;2023-03-01T00:06:14;9.18;;;8.27;;
8978;SDS011;4524;51.364;5.448;2023-03-01T00:08:42;9.65;;;8.65;;
8978;SDS011;4524;51.364;5.448;2023-03-01T00:11:12;9.57;;;8.63;;
8978;SDS011;4524;51.364;5.448;2023-03-01T00:13:43;10.48;;;8.77;;
8978;SDS011;4524;51.364;5.448;2023-03-01T00:16:14;10.07;;;8.60;;
8978;SDS011;4524;51.364;5.448;2023-03-01T00:18:43;9.40;;;8.27;;
8978;SDS011;4524;51.364;5.448;2023-03-01T00:21:12;9.18;;;8.30;;
8978;SDS011;4524;51.364;5.448;2023-03-01T00:23:40;10.07;;;8.83;;
8978;SDS011;4524;51.364;5.448;2023-03-01T00:26:09;11.10;;;8.32;;
8978;SDS011;4524;51.364;5.448;2023-03-01T00:28:41;9.52;;;8.40;;
8978;SDS011;4524;51.364;5.448;2023-03-01T00:31:10;9.45;;;8.05;;
8978;SDS011;4524;51.364;5.448;2023-03-01T00:33:41;9.60;;;8.10;;
8978;SDS011;4524;51.364;5.448;2023-03-01T00:36:10;9.55;;;8.30;;
8978;SDS011;4524;51.364;5.448;2023-03-01T00:38:40;9.77;;;8.63;;
8978;SDS011;4524;51.364;5.448;2023-03-01T00:41:12;9.82;;;8.82;;
8978;SDS011;4524;51.364;5.448;2023-03-01T00:43:41;9.30;;;8.40;;
8978;SDS011;4524;51.364;5.448;2023-03-01T00:46:11;9.27;;;8.38;;
8978;SDS011;4524;51.364;5.448;2023-03-01T00:48:41;9.50;;;8.57;;
8978;SDS011;4524;51.364;5.448;2023-03-01T00:51:10;9.88;;;8.88;;
8978;SDS011;4524;51.364;5.448;2023-03-01T00:53:39;10.82;;;8.80;;
8978;SDS011;4524;51.364;5.448;2023-03-01T00:56:09;9.60;;;8.57;;
8978;SDS011;4524;51.364;5.448;2023-03-01T00:58:40;10.38;;;9.27;;
8978;SDS011;4524;51.364;5.448;2023-03-01T01:01:08;9.52;;;8.52;;
8978;SDS011;4524;51.364;5.448;2023-03-01T01:03:44;9.60;;;8.70;;
8978;SDS011;4524;51.364;5.448;2023-03-01T01:06:14;9.70;;;8.70;;
8978;SDS011;4524;51.364;5.448;2023-03-01T01:08:45;10.07;;;9.02;;
8978;SDS011;4524;51.364;5.448;2023-03-01T01:11:14;9.65;;;8.63;;
8978;SDS011;4524;51.364;5.448;2023-03-01T01:13:44;9.43;;;8.50;;
8978;SDS011;4524;51.364;5.448;2023-03-01T01:16:13;9.95;;;8.70;;
8978;SDS011;4524;51.364;5.448;2023-03-01T01:18:42;9.50;;;8.52;;
8978;SDS011;4524;51.364;5.448;2023-03-01T01:21:11;9.52;;;8.45;;
8978;SDS011;4524;51.364;5.448;2023-03-01T01:23:41;9.68;;;8.65;;
8978;SDS011;4524;51.364;5.448;2023-03-01T01:26:12;10.40;;;9.30;;
8978;SDS011;4524;51.364;5.448;2023-03-01T01:28:41;9.95;;;8.85;;
8978;SDS011;4524;51.364;5.448;2023-03-01T01:31:10;9.95;;;8.82;;
8978;SDS011;4524;51.364;5.448;2023-03-01T01:33:38;9.95;;;8.50;;
8978;SDS011;4524;51.364;5.448;2023-03-01T01:36:07;10.23;;;9.13;;
8978;SDS011;4524;51.364;5.448;2023-03-01T01:38:36;10.05;;;9.05;;
8978;SDS011;4524;51.364;5.448;2023-03-01T01:41:05;9.27;;;8.38;;
8978;SDS011;4524;51.364;5.448;2023-03-01T01:43:34;10.00;;;9.00;;
8978;SDS011;4524;51.364;5.448;2023-03-01T01:46:04;10.73;;;9.57;;
8978;SDS011;4524;51.364;5.448;2023-03-01T01:48:37;10.20;;;9.07;;
8978;SDS011;4524;51.364;5.448;2023-03-01T01:51:11;10.52;;;9.15;;
8978;SDS011;4524;51.364;5.448;2023-03-01T01:53:44;10.50;;;9.10;;
8978;SDS011;4524;51.364;5.448;2023-03-01T01:56:16;10.07;;;9.05;;
8978;SDS011;4524;51.364;5.448;2023-03-01T01:58:45;9.68;;;8.68;;
8978;SDS011;4524;51.364;5.448;2023-03-01T02:01:14;9.85;;;8.80;;
8978;SDS011;4524;51.364;5.448;2023-03-01T02:03:44;9.80;;;8.77;;
8978;SDS011;4524;51.364;5.448;2023-03-01T02:06:15;10.70;;;9.05;;
8978;SDS011;4524;51.364;5.448;2023-03-01T02:08:49;11.15;;;8.63;;
8978;SDS011;4524;51.364;5.448;2023-03-01T02:11:20;10.05;;;8.65;;
8978;SDS011;4524;51.364;5.448;2023-03-01T02:13:48;9.82;;;8.57;;
8978;SDS011;4524;51.364;5.448;2023-03-01T02:16:17;10.30;;;8.32;;
8978;SDS011;4524;51.364;5.448;2023-03-01T02:18:46;11.05;;;8.80;;
8978;SDS011;4524;51.364;5.448;2023-03-01T02:21:22;9.40;;;8.50;;
8978;SDS011;4524;51.364;5.448;2023-03-01T02:23:58;10.02;;;8.77;;
8978;SDS011;4524;51.364;5.448;2023-03-01T02:26:33;11.38;;;9.02;;
8978;SDS011;4524;51.364;5.448;2023-03-01T02:29:07;9.90;;;8.88;;
8978;SDS011;4524;51.364;5.448;2023-03-01T02:31:35;10.80;;;8.70;;
8978;SDS011;4524;51.364;5.448;2023-03-01T02:34:11;10.32;;;9.20;;
8978;SDS011;4524;51.364;5.448;2023-03-01T02:36:41;9.75;;;8.75;;
8978;SDS011;4524;51.364;5.448;2023-03-01T02:39:14;9.98;;;8.93;;
8978;SDS011;4524;51.364;5.448;2023-03-01T02:41:45;10.60;;;8.80;;
8978;SDS011;4524;51.364;5.448;2023-03-01T02:44:16;10.50;;;8.93;;
8978;SDS011;4524;51.364;5.448;2023-03-01T02:46:45;10.52;;;9.43;;
8978;SDS011;4524;51.364;5.448;2023-03-01T02:49:23;9.75;;;8.73;;
8978;SDS011;4524;51.364;5.448;2023-03-01T02:51:56;9.80;;;8.75;;
8978;SDS011;4524;51.364;5.448;2023-03-01T02:54:36;9.63;;;8.73;;
8978;SDS011;4524;51.364;5.448;2023-03-01T02:57:08;9.63;;;8.52;;
8978;SDS011;4524;51.364;5.448;2023-03-01T02:59:38;9.10;;;8.20;;
8978;SDS011;4524;51.364;5.448;2023-03-01T03:02:07;9.32;;;8.43;;
8978;SDS011;4524;51.364;5.448;2023-03-01T03:04:46;9.95;;;8.82;;
8978;SDS011;4524;51.364;5.448;2023-03-01T03:07:15;9.73;;;8.65;;
8978;SDS011;4524;51.364;5.448;2023-03-01T03:09:43;10.15;;;8.63;;
8978;SDS011;4524;51.364;5.448;2023-03-01T03:12:11;10.55;;;9.40;;
8978;SDS011;4524;51.364;5.448;2023-03-01T03:14:41;9.75;;;8.75;;
8978;SDS011;4524;51.364;5.448;2023-03-01T03:17:09;10.70;;;9.32;;
8978;SDS011;4524;51.364;5.448;2023-03-01T03:19:37;9.70;;;8.70;;
8978;SDS011;4524;51.364;5.448;2023-03-01T03:22:04;9.83;;;8.80;;
8978;SDS011;4524;51.364;5.448;2023-03-01T03:24:35;9.70;;;8.70;;
8978;SDS011;4524;51.364;5.448;2023-03-01T03:27:04;10.52;;;9.13;;
8978;SDS011;4524;51.364;5.448;2023-03-01T03:29:33;9.70;;;8.70;;
8978;SDS011;4524;51.364;5.448;2023-03-01T03:32:02;10.00;;;8.87;;
8978;SDS011;4524;51.364;5.448;2023-03-01T03:34:31;9.82;;;8.50;;
8978;SDS011;4524;51.364;5.448;2023-03-01T03:36:58;10.90;;;8.90;;
8978;SDS011;4524;51.364;5.448;2023-03-01T03:39:26;10.57;;;9.48;;
8978;SDS011;4524;51.364;5.448;2023-03-01T03:41:55;11.57;;;9.13;;
8978;SDS011;4524;51.364;5.448;2023-03-01T03:44:23;10.00;;;9.00;;
8978;SDS011;4524;51.364;5.448;2023-03-01T03:46:51;10.05;;;9.02;;
8978;SDS011;4524;51.364;5.448;2023-03-01T03:49:20;10.13;;;9.02;;
8978;SDS011;4524;51.364;5.448;2023-03-01T03:51:48;10.38;;;9.20;;
8978;SDS011;4524;51.364;5.448;2023-03-01T03:54:16;10.55;;;9.10;;
8978;SDS011;4524;51.364;5.448;2023-03-01T03:56:44;10.57;;;9.50;;
8978;SDS011;4524;51.364;5.448;2023-03-01T03:59:12;10.25;;;9.25;;
8978;SDS011;4524;51.364;5.448;2023-03-01T04:01:39;10.50;;;9.10;;
8978;SDS011;4524;51.364;5.448;2023-03-01T04:04:08;10.05;;;9.05;;
8978;SDS011;4524;51.364;5.448;2023-03-01T04:06:37;11.70;;;9.50;;
8978;SDS011;4524;51.364;5.448;2023-03-01T04:09:05;11.10;;;10.00;;
8978;SDS011;4524;51.364;5.448;2023-03-01T04:11:33;10.32;;;9.23;;
8978;SDS011;4524;51.364;5.448;2023-03-01T04:14:01;10.30;;;9.30;;
8978;SDS011;4524;51.364;5.448;2023-03-01T04:16:30;10.20;;;9.10;;
8978;SDS011;4524;51.364;5.448;2023-03-01T04:18:59;10.50;;;9.40;;
8978;SDS011;4524;51.364;5.448;2023-03-01T04:21:27;11.88;;;10.10;;
8978;SDS011;4524;51.364;5.448;2023-03-01T04:23:56;11.68;;;9.52;;
8978;SDS011;4524;51.364;5.448;2023-03-01T04:26:24;10.75;;;9.63;;
8978;SDS011;4524;51.364;5.448;2023-03-01T04:28:53;10.63;;;9.53;;
8978;SDS011;4524;51.364;5.448;2023-03-01T04:31:21;10.85;;;9.52;;
8978;SDS011;4524;51.364;5.448;2023-03-01T04:33:50;10.93;;;9.63;;
8978;SDS011;4524;51.364;5.448;2023-03-01T04:36:21;10.83;;;9.63;;
8978;SDS011;4524;51.364;5.448;2023-03-01T04:38:51;11.85;;;9.77;;
8978;SDS011;4524;51.364;5.448;2023-03-01T04:41:21;10.52;;;9.32;;
8978;SDS011;4524;51.364;5.448;2023-03-01T04:43:50;11.52;;;9.43;;
8978;SDS011;4524;51.364;5.448;2023-03-01T04:46:19;12.45;;;10.00;;
8978;SDS011;4524;51.364;5.448;2023-03-01T04:48:48;10.48;;;9.45;;
8978;SDS011;4524;51.364;5.448;2023-03-01T04:51:16;11.57;;;9.77;;
8978;SDS011;4524;51.364;5.448;2023-03-01T04:53:44;10.57;;;9.48;;
8978;SDS011;4524;51.364;5.448;2023-03-01T04:56:12;12.02;;;10.18;;
8978;SDS011;4524;51.364;5.448;2023-03-01T04:58:42;10.52;;;9.48;;
8978;SDS011;4524;51.364;5.448;2023-03-01T05:01:12;11.63;;;10.02;;
8978;SDS011;4524;51.364;5.448;2023-03-01T05:03:42;11.65;;;10.45;;
8978;SDS011;4524;51.364;5.448;2023-03-01T05:06:11;11.80;;;10.35;;
8978;SDS011;4524;51.364;5.448;2023-03-01T05:08:39;11.43;;;10.23;;
8978;SDS011;4524;51.364;5.448;2023-03-01T05:11:08;11.43;;;9.65;;
8978;SDS011;4524;51.364;5.448;2023-03-01T05:13:37;12.47;;;10.50;;
8978;SDS011;4524;51.364;5.448;2023-03-01T05:16:08;11.52;;;9.88;;
8978;SDS011;4524;51.364;5.448;2023-03-01T05:18:38;13.02;;;10.30;;
8978;SDS011;4524;51.364;5.448;2023-03-01T05:21:07;11.90;;;10.25;;
8978;SDS011;4524;51.364;5.448;2023-03-01T05:23:36;12.07;;;10.32;;
8978;SDS011;4524;51.364;5.448;2023-03-01T05:26:05;14.30;;;9.07;;
8978;SDS011;4524;51.364;5.448;2023-03-01T05:28:47;12.40;;;9.37;;
8978;SDS011;4524;51.364;5.448;2023-03-01T05:31:17;13.60;;;8.23;;
8978;SDS011;4524;51.364;5.448;2023-03-01T05:33:45;11.63;;;9.60;;
8978;SDS011;4524;51.364;5.448;2023-03-01T05:36:13;11.43;;;8.47;;
8978;SDS011;4524;51.364;5.448;2023-03-01T05:38:41;10.10;;;8.67;;
8978;SDS011;4524;51.364;5.448;2023-03-01T05:41:13;11.17;;;9.00;;
8978;SDS011;4524;51.364;5.448;2023-03-01T05:43:42;11.50;;;8.80;;
8978;SDS011;4524;51.364;5.448;2023-03-01T05:46:11;11.60;;;8.97;;
8978;SDS011;4524;51.364;5.448;2023-03-01T05:48:42;10.33;;;8.43;;
8978;SDS011;4524;51.364;5.448;2023-03-01T05:51:10;11.77;;;8.93;;
8978;SDS011;4524;51.364;5.448;2023-03-01T05:53:38;13.33;;;8.73;;
8978;SDS011;4524;51.364;5.448;2023-03-01T05:56:07;12.93;;;10.50;;
8978;SDS011;4524;51.364;5.448;2023-03-01T05:58:35;13.48;;;10.77;;
8978;SDS011;4524;51.364;5.448;2023-03-01T06:01:04;11.50;;;9.80;;
8978;SDS011;4524;51.364;5.448;2023-03-01T06:03:32;12.70;;;10.40;;
8978;SDS011;4524;51.364;5.448;2023-03-01T06:06:02;13.93;;;11.27;;
8978;SDS011;4524;51.364;5.448;2023-03-01T06:08:30;12.50;;;10.63;;
8978;SDS011;4524;51.364;5.448;2023-03-01T06:10:58;12.53;;;10.97;;
8978;SDS011;4524;51.364;5.448;2023-03-01T06:13:26;10.98;;;9.77;;
8978;SDS011;4524;51.364;5.448;2023-03-01T06:15:54;11.57;;;10.40;;
8978;SDS011;4524;51.364;5.448;2023-03-01T06:18:22;12.02;;;10.68;;
8978;SDS011;4524;51.364;5.448;2023-03-01T06:20:52;11.82;;;10.52;;
8978;SDS011;4524;51.364;5.448;2023-03-01T06:23:22;12.30;;;11.00;;
8978;SDS011;4524;51.364;5.448;2023-03-01T06:25:50;11.25;;;9.80;;
8978;SDS011;4524;51.364;5.448;2023-03-01T06:28:19;12.48;;;10.73;;
8978;SDS011;4524;51.364;5.448;2023-03-01T06:30:47;12.05;;;10.57;;
8978;SDS011;4524;51.364;5.448;2023-03-01T06:33:15;12.32;;;11.02;;
8978;SDS011;4524;51.364;5.448;2023-03-01T06:35:44;11.85;;;10.63;;
8978;SDS011;4524;51.364;5.448;2023-03-01T06:38:12;12.57;;;11.27;;
8978;SDS011;4524;51.364;5.448;2023-03-01T06:40:42;13.43;;;11.85;;
8978;SDS011;4524;51.364;5.448;2023-03-01T06:43:10;16.23;;;13.67;;
8978;SDS011;4524;51.364;5.448;2023-03-01T06:45:39;13.00;;;11.70;;
8978;SDS011;4524;51.364;5.448;2023-03-01T06:48:07;12.68;;;11.05;;
8978;SDS011;4524;51.364;5.448;2023-03-01T06:50:35;14.27;;;12.40;;
8978;SDS011;4524;51.364;5.448;2023-03-01T06:53:04;13.55;;;11.50;;
8978;SDS011;4524;51.364;5.448;2023-03-01T06:55:32;14.32;;;11.57;;
8978;SDS011;4524;51.364;5.448;2023-03-01T06:58:02;14.80;;;11.65;;
8978;SDS011;4524;51.364;5.448;2023-03-01T07:00:30;14.15;;;11.82;;
8978;SDS011;4524;51.364;5.448;2023-03-01T07:02:58;13.63;;;11.95;;
8978;SDS011;4524;51.364;5.448;2023-03-01T07:05:28;13.57;;;12.07;;
8978;SDS011;4524;51.364;5.448;2023-03-01T07:07:57;14.60;;;13.10;;
8978;SDS011;4524;51.364;5.448;2023-03-01T07:10:25;14.55;;;12.93;;
8978;SDS011;4524;51.364;5.448;2023-03-01T07:12:54;13.45;;;12.05;;
8978;SDS011;4524;51.364;5.448;2023-03-01T07:15:24;13.20;;;11.80;;
8978;SDS011;4524;51.364;5.448;2023-03-01T07:17:52;14.73;;;12.57;;
8978;SDS011;4524;51.364;5.448;2023-03-01T07:20:20;12.90;;;11.32;;
8978;SDS011;4524;51.364;5.448;2023-03-01T07:22:50;15.20;;;11.83;;
8978;SDS011;4524;51.364;5.448;2023-03-01T07:25:18;18.67;;;12.63;;
8978;SDS011;4524;51.364;5.448;2023-03-01T07:27:48;15.90;;;11.73;;
8978;SDS011;4524;51.364;5.448;2023-03-01T07:30:17;15.40;;;12.30;;
8978;SDS011;4524;51.364;5.448;2023-03-01T07:32:47;13.40;;;11.98;;
8978;SDS011;4524;51.364;5.448;2023-03-01T07:35:15;13.63;;;12.13;;
8978;SDS011;4524;51.364;5.448;2023-03-01T07:37:43;14.30;;;12.05;;
8978;SDS011;4524;51.364;5.448;2023-03-01T07:40:11;16.17;;;13.55;;
8978;SDS011;4524;51.364;5.448;2023-03-01T07:42:40;14.98;;;12.60;;
8978;SDS011;4524;51.364;5.448;2023-03-01T07:45:08;14.13;;;12.63;;
8978;SDS011;4524;51.364;5.448;2023-03-01T07:47:37;13.23;;;11.32;;
8978;SDS011;4524;51.364;5.448;2023-03-01T07:50:06;14.70;;;11.45;;
8978;SDS011;4524;51.364;5.448;2023-03-01T07:52:35;13.75;;;12.25;;
8978;SDS011;4524;51.364;5.448;2023-03-01T07:55:04;12.57;;;11.27;;
8978;SDS011;4524;51.364;5.448;2023-03-01T07:57:32;14.35;;;11.07;;
8978;SDS011;4524;51.364;5.448;2023-03-01T08:00:00;13.60;;;11.60;;
8978;SDS011;4524;51.364;5.448;2023-03-01T08:02:37;12.45;;;11.10;;
8978;SDS011;4524;51.364;5.448;2023-03-01T08:05:08;11.75;;;10.52;;
8978;SDS011;4524;51.364;5.448;2023-03-01T08:07:37;12.10;;;10.57;;
8978;SDS011;4524;51.364;5.448;2023-03-01T08:10:05;9.87;;;8.63;;
8978;SDS011;4524;51.364;5.448;2023-03-01T08:12:33;11.30;;;9.10;;
8978;SDS011;4524;51.364;5.448;2023-03-01T08:15:01;12.83;;;9.07;;
8978;SDS011;4524;51.364;5.448;2023-03-01T08:17:30;13.47;;;8.93;;
8978;SDS011;4524;51.364;5.448;2023-03-01T08:19:58;10.63;;;9.00;;
8978;SDS011;4524;51.364;5.448;2023-03-01T08:22:27;12.27;;;8.93;;
8978;SDS011;4524;51.364;5.448;2023-03-01T08:24:55;14.20;;;9.30;;
8978;SDS011;4524;51.364;5.448;2023-03-01T08:27:23;12.17;;;8.67;;
8978;SDS011;4524;51.364;5.448;2023-03-01T08:29:51;11.33;;;9.63;;
8978;SDS011;4524;51.364;5.448;2023-03-01T08:32:19;13.32;;;9.45;;
8978;SDS011;4524;51.364;5.448;2023-03-01T08:34:47;10.18;;;9.10;;
8978;SDS011;4524;51.364;5.448;2023-03-01T08:37:15;10.27;;;9.18;;
8978;SDS011;4524;51.364;5.448;2023-03-01T08:39:44;10.30;;;9.20;;
8978;SDS011;4524;51.364;5.448;2023-03-01T08:42:12;10.40;;;9.30;;
8978;SDS011;4524;51.364;5.448;2023-03-01T08:44:40;10.85;;;8.82;;
8978;SDS011;4524;51.364;5.448;2023-03-01T08:47:11;10.33;;;9.00;;
8978;SDS011;4524;51.364;5.448;2023-03-01T08:49:39;10.73;;;9.07;;
8978;SDS011;4524;51.364;5.448;2023-03-01T08:52:07;9.25;;;8.30;;
8978;SDS011;4524;51.364;5.448;2023-03-01T08:54:35;9.77;;;8.77;;
8978;SDS011;4524;51.364;5.448;2023-03-01T08:57:04;9.65;;;8.40;;
8978;SDS011;4524;51.364;5.448;2023-03-01T08:59:32;11.45;;;8.93;;
8978;SDS011;4524;51.364;5.448;2023-03-01T09:02:03;10.38;;;8.45;;
8978;SDS011;4524;51.364;5.448;2023-03-01T09:04:31;10.02;;;8.85;;
8978;SDS011;4524;51.364;5.448;2023-03-01T09:06:59;9.82;;;8.27;;
8978;SDS011;4524;51.364;5.448;2023-03-01T09:09:27;9.35;;;8.35;;
8978;SDS011;4524;51.364;5.448;2023-03-01T09:11:55;10.18;;;8.60;;
8978;SDS011;4524;51.364;5.448;2023-03-01T09:14:25;9.87;;;8.70;;
8978;SDS011;4524;51.364;5.448;2023-03-01T09:16:53;9.68;;;8.68;;
8978;SDS011;4524;51.364;5.448;2023-03-01T09:19:21;9.23;;;8.33;;
8978;SDS011;4524;51.364;5.448;2023-03-01T09:21:52;10.00;;;8.63;;
8978;SDS011;4524;51.364;5.448;2023-03-01T09:24:22;10.25;;;8.70;;
8978;SDS011;4524;51.364;5.448;2023-03-01T09:26:55;10.48;;;8.40;;
8978;SDS011;4524;51.364;5.448;2023-03-01T09:29:24;9.70;;;8.70;;
8978;SDS011;4524;51.364;5.448;2023-03-01T09:31:53;9.88;;;8.35;;
8978;SDS011;4524;51.364;5.448;2023-03-01T09:34:22;10.85;;;8.55;;
8978;SDS011;4524;51.364;5.448;2023-03-01T09:36:50;10.73;;;8.85;;
8978;SDS011;4524;51.364;5.448;2023-03-01T09:39:18;9.32;;;8.43;;
8978;SDS011;4524;51.364;5.448;2023-03-01T09:41:48;9.07;;;8.07;;
8978;SDS011;4524;51.364;5.448;2023-03-01T09:44:29;10.40;;;9.30;;
8978;SDS011;4524;51.364;5.448;2023-03-01T09:47:03;9.82;;;8.82;;
8978;SDS011;4524;51.364;5.448;2023-03-01T09:49:36;11.55;;;8.50;;
8978;SDS011;4524;51.364;5.448;2023-03-01T09:52:11;10.37;;;9.33;;
8978;SDS011;4524;51.364;5.448;2023-03-01T09:54:47;10.40;;;9.05;;
8978;SDS011;4524;51.364;5.448;2023-03-01T09:57:20;10.70;;;9.38;;
8978;SDS011;4524;51.364;5.448;2023-03-01T09:59:59;11.50;;;10.03;;
8978;SDS011;4524;51.364;5.448;2023-03-01T10:02:38;11.83;;;9.97;;
8978;SDS011;4524;51.364;5.448;2023-03-01T10:05:21;10.43;;;9.30;;
8978;SDS011;4524;51.364;5.448;2023-03-01T10:08:15;12.27;;;9.70;;
8978;SDS011;4524;51.364;5.448;2023-03-01T10:10:53;12.50;;;9.70;;
8978;SDS011;4524;51.364;5.448;2023-03-01T10:13:24;12.48;;;9.98;;
8978;SDS011;4524;51.364;5.448;2023-03-01T10:16:01;11.90;;;9.93;;
8978;SDS011;4524;51.364;5.448;2023-03-01T10:18:33;12.10;;;9.38;;
8978;SDS011;4524;51.364;5.448;2023-03-01T10:21:07;11.40;;;10.00;;
8978;SDS011;4524;51.364;5.448;2023-03-01T10:23:41;13.35;;;10.38;;
8978;SDS011;4524;51.364;5.448;2023-03-01T10:26:17;11.50;;;9.73;;
8978;SDS011;4524;51.364;5.448;2023-03-01T10:28:58;11.48;;;9.48;;
8978;SDS011;4524;51.364;5.448;2023-03-01T10:31:35;11.93;;;9.52;;
8978;SDS011;4524;51.364;5.448;2023-03-01T10:34:10;11.75;;;9.30;;
8978;SDS011;4524;51.364;5.448;2023-03-01T10:36:40;11.13;;;9.93;;
8978;SDS011;4524;51.364;5.448;2023-03-01T10:39:15;10.30;;;9.20;;
8978;SDS011;4524;51.364;5.448;2023-03-01T10:41:55;9.88;;;8.82;;
8978;SDS011;4524;51.364;5.448;2023-03-01T10:44:36;10.57;;;9.48;;
8978;SDS011;4524;51.364;5.448;2023-03-01T10:47:15;10.90;;;9.68;;
8978;SDS011;4524;51.364;5.448;2023-03-01T10:49:53;11.80;;;9.32;;
8978;SDS011;4524;51.364;5.448;2023-03-01T10:52:25;10.33;;;8.97;;
8978;SDS011;4524;51.364;5.448;2023-03-01T10:54:58;10.10;;;9.10;;
8978;SDS011;4524;51.364;5.448;2023-03-01T10:57:32;11.15;;;9.18;;
8978;SDS011;4524;51.364;5.448;2023-03-01T11:03:03;10.45;;;9.38;;
8978;SDS011;4524;51.364;5.448;2023-03-01T11:05:50;11.90;;;9.50;;
8978;SDS011;4524;51.364;5.448;2023-03-01T11:08:30;10.93;;;9.30;;
8978;SDS011;4524;51.364;5.448;2023-03-01T11:14:00;12.52;;;10.07;;
8978;SDS011;4524;51.364;5.448;2023-03-01T11:16:57;10.43;;;9.32;;
8978;SDS011;4524;51.364;5.448;2023-03-01T11:19:28;10.73;;;9.63;;
8978;SDS011;4524;51.364;5.448;2023-03-01T11:21:58;10.77;;;9.68;;
8978;SDS011;4524;51.364;5.448;2023-03-01T11:24:31;10.90;;;9.73;;
8978;SDS011;4524;51.364;5.448;2023-03-01T11:27:11;10.18;;;9.18;;
8978;SDS011;4524;51.364;5.448;2023-03-01T11:29:44;11.48;;;10.10;;
8978;SDS011;4524;51.364;5.448;2023-03-01T11:32:38;10.67;;;9.57;;
8978;SDS011;4524;51.364;5.448;2023-03-01T11:35:13;10.75;;;9.65;;
8978;SDS011;4524;51.364;5.448;2023-03-01T11:37:49;11.02;;;9.73;;
8978;SDS011;4524;51.364;5.448;2023-03-01T11:40:26;10.40;;;9.30;;
8978;SDS011;4524;51.364;5.448;2023-03-01T11:43:03;12.10;;;10.23;;
8978;SDS011;4524;51.364;5.448;2023-03-01T11:45:43;10.73;;;9.63;;
8978;SDS011;4524;51.364;5.448;2023-03-01T11:48:28;11.10;;;9.85;;
8978;SDS011;4524;51.364;5.448;2023-03-01T11:51:19;11.07;;;9.40;;
8978;SDS011;4524;51.364;5.448;2023-03-01T11:53:56;10.70;;;9.60;;
8978;SDS011;4524;51.364;5.448;2023-03-01T11:56:34;10.40;;;9.30;;
8978;SDS011;4524;51.364;5.448;2023-03-01T11:59:13;10.20;;;9.15;;
8978;SDS011;4524;51.364;5.448;2023-03-01T12:02:01;9.55;;;8.57;;
8978;SDS011;4524;51.364;5.448;2023-03-01T12:04:53;11.07;;;9.30;;
8978;SDS011;4524;51.364;5.448;2023-03-01T12:07:36;10.50;;;8.57;;
8978;SDS011;4524;51.364;5.448;2023-03-01T12:10:16;10.20;;;8.93;;
8978;SDS011;4524;51.364;5.448;2023-03-01T12:12:55;10.45;;;9.10;;
8978;SDS011;4524;51.364;5.448;2023-03-01T12:15:51;9.73;;;8.73;;
8978;SDS011;4524;51.364;5.448;2023-03-01T12:18:44;10.35;;;8.40;;
8978;SDS011;4524;51.364;5.448;2023-03-01T12:21:35;10.00;;;8.13;;
8978;SDS011;4524;51.364;5.448;2023-03-01T12:24:21;9.05;;;7.53;;
8978;SDS011;4524;51.364;5.448;2023-03-01T12:27:14;8.88;;;7.82;;
8978;SDS011;4524;51.364;5.448;2023-03-01T12:29:52;8.90;;;7.97;;
8978;SDS011;4524;51.364;5.448;2023-03-01T12:32:32;9.20;;;8.20;;
8978;SDS011;4524;51.364;5.448;2023-03-01T12:35:12;8.93;;;8.03;;
8978;SDS011;4524;51.364;5.448;2023-03-01T12:37:54;8.85;;;7.93;;
8978;SDS011;4524;51.364;5.448;2023-03-01T12:40:36;9.32;;;8.20;;
8978;SDS011;4524;51.364;5.448;2023-03-01T12:43:22;8.98;;;8.05;;
8978;SDS011;4524;51.364;5.448;2023-03-01T12:46:19;9.88;;;7.50;;
8978;SDS011;4524;51.364;5.448;2023-03-01T12:48:56;9.30;;;7.43;;
8978;SDS011;4524;51.364;5.448;2023-03-01T12:51:32;8.55;;;7.43;;
8978;SDS011;4524;51.364;5.448;2023-03-01T12:54:05;9.68;;;7.57;;
8978;SDS011;4524;51.364;5.448;2023-03-01T12:56:40;8.15;;;7.35;;
8978;SDS011;4524;51.364;5.448;2023-03-01T12:59:11;8.65;;;7.65;;
8978;SDS011;4524;51.364;5.448;2023-03-01T13:01:45;8.85;;;7.50;;
8978;SDS011;4524;51.364;5.448;2023-03-01T13:04:28;8.48;;;7.57;;
8978;SDS011;4524;51.364;5.448;2023-03-01T13:07:06;8.32;;;7.30;;
8978;SDS011;4524;51.364;5.448;2023-03-01T13:09:43;8.38;;;6.80;;
8978;SDS011;4524;51.364;5.448;2023-03-01T13:15:32;8.23;;;7.30;;
8978;SDS011;4524;51.364;5.448;2023-03-01T13:18:02;9.48;;;7.07;;
8978;SDS011;4524;51.364;5.448;2023-03-01T13:20:45;9.40;;;7.57;;
8978;SDS011;4524;51.364;5.448;2023-03-01T13:23:23;8.23;;;7.40;;
8978;SDS011;4524;51.364;5.448;2023-03-01T13:26:01;8.02;;;7.20;;
8978;SDS011;4524;51.364;5.448;2023-03-01T13:37:24;9.30;;;7.50;;
8978;SDS011;4524;51.364;5.448;2023-03-01T13:39:59;8.60;;;7.47;;
8978;SDS011;4524;51.364;5.448;2023-03-01T13:42:36;9.43;;;7.45;;
8978;SDS011;4524;51.364;5.448;2023-03-01T13:45:21;8.10;;;7.30;;
8978;SDS011;4524;51.364;5.448;2023-03-01T13:47:54;7.85;;;7.05;;
8978;SDS011;4524;51.364;5.448;2023-03-01T13:50:25;7.85;;;7.05;;
8978;SDS011;4524;51.364;5.448;2023-03-01T13:52:57;7.75;;;6.97;;
8978;SDS011;4524;51.364;5.448;2023-03-01T13:55:34;8.20;;;7.03;;
8978;SDS011;4524;51.364;5.448;2023-03-01T13:58:12;8.65;;;6.82;;
8978;SDS011;4524;51.364;5.448;2023-03-01T14:00:45;8.15;;;6.90;;
8978;SDS011;4524;51.364;5.448;2023-03-01T14:03:14;8.02;;;7.22;;
8978;SDS011;4524;51.364;5.448;2023-03-01T14:05:56;8.13;;;7.00;;
8978;SDS011;4524;51.364;5.448;2023-03-01T14:08:38;7.30;;;6.55;;
8978;SDS011;4524;51.364;5.448;2023-03-01T14:11:20;7.68;;;6.88;;
8978;SDS011;4524;51.364;5.448;2023-03-01T14:14:19;8.25;;;6.90;;
8978;SDS011;4524;51.364;5.448;2023-03-01T14:17:02;7.50;;;6.60;;
8978;SDS011;4524;51.364;5.448;2023-03-01T14:19:46;9.70;;;7.13;;
8978;SDS011;4524;51.364;5.448;2023-03-01T14:22:17;8.43;;;6.90;;
8978;SDS011;4524;51.364;5.448;2023-03-01T14:24:49;7.60;;;6.77;;
8978;SDS011;4524;51.364;5.448;2023-03-01T14:27:18;7.38;;;6.63;;
8978;SDS011;4524;51.364;5.448;2023-03-01T14:29:53;8.15;;;6.68;;
8978;SDS011;4524;51.364;5.448;2023-03-01T14:32:25;7.70;;;6.90;;
8978;SDS011;4524;51.364;5.448;2023-03-01T14:34:55;8.27;;;6.90;;
8978;SDS011;4524;51.364;5.448;2023-03-01T14:37:25;8.97;;;6.53;;
8978;SDS011;4524;51.364;5.448;2023-03-01T14:39:55;8.45;;;6.65;;
8978;SDS011;4524;51.364;5.448;2023-03-01T14:42:25;8.43;;;6.90;;
8978;SDS011;4524;51.364;5.448;2023-03-01T14:44:55;8.15;;;6.75;;
8978;SDS011;4524;51.364;5.448;2023-03-01T14:47:29;7.55;;;6.78;;
8978;SDS011;4524;51.364;5.448;2023-03-01T14:49:59;7.20;;;6.50;;
8978;SDS011;4524;51.364;5.448;2023-03-01T14:52:33;7.15;;;6.28;;
8978;SDS011;4524;51.364;5.448;2023-03-01T14:55:04;8.25;;;6.88;;
8978;SDS011;4524;51.364;5.448;2023-03-01T14:57:34;8.38;;;7.07;;
8978;SDS011;4524;51.364;5.448;2023-03-01T15:00:03;7.35;;;6.65;;
8978;SDS011;4524;51.364;5.448;2023-03-01T15:02:35;8.75;;;7.43;;
8978;SDS011;4524;51.364;5.448;2023-03-01T15:05:06;8.30;;;7.32;;
8978;SDS011;4524;51.364;5.448;2023-03-01T15:07:37;7.90;;;6.93;;
8978;SDS011;4524;51.364;5.448;2023-03-01T15:10:14;8.52;;;7.18;;
8978;SDS011;4524;51.364;5.448;2023-03-01T15:12:46;8.20;;;7.10;;
8978;SDS011;4524;51.364;5.448;2023-03-01T15:18:11;8.50;;;7.20;;
8978;SDS011;4524;51.364;5.448;2023-03-01T15:20:43;8.00;;;7.20;;
8978;SDS011;4524;51.364;5.448;2023-03-01T15:23:16;9.07;;;7.60;;
8978;SDS011;4524;51.364;5.448;2023-03-01T15:25:49;9.20;;;7.32;;
8978;SDS011;4524;51.364;5.448;2023-03-01T15:28:23;10.32;;;7.85;;
8978;SDS011;4524;51.364;5.448;2023-03-01T15:30:54;8.70;;;7.53;;
8978;SDS011;4524;51.364;5.448;2023-03-01T15:33:30;9.75;;;8.13;;
8978;SDS011;4524;51.364;5.448;2023-03-01T15:36:01;8.60;;;7.40;;
8978;SDS011;4524;51.364;5.448;2023-03-01T15:38:35;9.75;;;7.85;;
8978;SDS011;4524;51.364;5.448;2023-03-01T15:41:21;8.55;;;7.65;;
8978;SDS011;4524;51.364;5.448;2023-03-01T15:43:51;9.63;;;7.80;;
8978;SDS011;4524;51.364;5.448;2023-03-01T15:46:23;8.52;;;7.63;;
8978;SDS011;4524;51.364;5.448;2023-03-01T15:48:56;9.75;;;8.00;;
8978;SDS011;4524;51.364;5.448;2023-03-01T15:51:29;9.95;;;7.80;;
8978;SDS011;4524;51.364;5.448;2023-03-01T15:54:00;8.25;;;7.20;;
8978;SDS011;4524;51.364;5.448;2023-03-01T15:56:31;8.73;;;7.80;;